Aviation Digital Data Service (ADDS)

Output produced by METARs form (0826 UTC 26 August 2016)
found at http://aviationweather.gov/adds/metars/
 
KBAF 260533Z 2606/2706 00000KT P6SM SKC 
     FM260800 00000KT 5SM BR BKN060 
     FM261200 00000KT 3SM BR VCSH BKN050 
     FM261400 24005KT P6SM VCSH BKN050 
     FM261600 26006KT P6SM BKN050 
     FM270100 33004KT P6SM SKC